^^
Your Local Weather - Clay, NY Station Historical Data
Daily Summary for January 16, 2018 Units:  Metric    English   Both
« Previous Day
Next Day »
Daily Weekly Monthly Yearly Custom
  High: Low: Average:
Temperature: -2.3 °C -9.2 °C -5.9 °C
Dew Point: -3.4 °C -10.5 °C -7 °C
Humidity: 93% 90% 92%
Wind Speed: 4.8km/h 0km/h 1.1km/h
Wind Gust: 8km/h - -
Wind- - SE
Pressure: 1029.7 hPa 1027.3 hPa -
Precipitation: 0 mm    
Historical Graphs
 
 
Tabular Data for January 16, 2018
Time Temperature Dew Point Pressure Wind Wind Speed Wind Gust Humidity Rainfall Rate (Hourly) solar
00:04 -8.6 °C -9.9 °C 1029.3 hPa ENE 3.2 km/h 6.4 km/h 90% 0 mm 0 W/m2
00:12 -8.6 °C -9.9 °C 1029 hPa ENE 3.2 km/h 3.2 km/h 90% 0 mm 0 W/m2
00:22 -8.6 °C -9.9 °C 1029 hPa ESE 1.6 km/h 1.6 km/h 90% 0 mm 0 W/m2
00:28 -8.6 °C -9.9 °C 1028.7 hPa ENE 3.2 km/h 6.4 km/h 90% 0 mm 0 W/m2
00:34 -8.6 °C -9.9 °C 1028.7 hPa ENE 4.8 km/h 4.8 km/h 90% 0 mm 0 W/m2
00:40 -8.6 °C -9.9 °C 1028.7 hPa SE 3.2 km/h 3.2 km/h 90% 0 mm 0 W/m2
00:48 -8.6 °C -9.9 °C 1028.7 hPa ENE 3.2 km/h 3.2 km/h 90% 0 mm 0 W/m2
00:54 -8.6 °C -9.9 °C 1028.7 hPa East 4.8 km/h 8 km/h 90% 0 mm 0 W/m2
01:00 -8.6 °C -9.9 °C 1028.3 hPa East 4.8 km/h 4.8 km/h 90% 0 mm 0 W/m2
01:10 -8.6 °C -9.9 °C 1028.3 hPa East 1.6 km/h 4.8 km/h 90% 0 mm 0 W/m2
01:16 -8.6 °C -9.9 °C 1028.3 hPa ENE 3.2 km/h 4.8 km/h 90% 0 mm 0 W/m2
01:28 -8.6 °C -9.9 °C 1028.3 hPa ENE 3.2 km/h 4.8 km/h 90% 0 mm 0 W/m2
01:38 -8.6 °C -9.9 °C 1028 hPa East 4.8 km/h 8 km/h 90% 0 mm 0 W/m2
01:50 -8.6 °C -9.9 °C 1028.3 hPa ENE 4.8 km/h 4.8 km/h 90% 0 mm 0 W/m2
01:56 -8.7 °C -10 °C 1028.3 hPa ENE 4.8 km/h 6.4 km/h 90% 0 mm 0 W/m2
02:02 -8.7 °C -10 °C 1028.3 hPa East 4.8 km/h 4.8 km/h 90% 0 mm 0 W/m2
02:08 -8.7 °C -10 °C 1028.3 hPa East 4.8 km/h 8 km/h 90% 0 mm 0 W/m2
02:14 -8.7 °C -10 °C 1028 hPa ENE 4.8 km/h 8 km/h 90% 0 mm 0 W/m2
02:22 -8.7 °C -10 °C 1028.3 hPa ENE 4.8 km/h 4.8 km/h 90% 0 mm 0 W/m2
02:30 -8.7 °C -10 °C 1028.3 hPa ENE 3.2 km/h 3.2 km/h 90% 0 mm 0 W/m2
02:38 -8.7 °C -10 °C 1028.3 hPa East 3.2 km/h 3.2 km/h 90% 0 mm 0 W/m2
02:44 -8.7 °C -10.1 °C 1028.3 hPa East 1.6 km/h 3.2 km/h 90% 0 mm 0 W/m2
02:52 -8.7 °C -10.1 °C 1028.3 hPa NE 1.6 km/h 3.2 km/h 90% 0 mm 0 W/m2
02:58 -8.8 °C -10.1 °C 1028.3 hPa NE 1.6 km/h 1.6 km/h 90% 0 mm 0 W/m2
03:04 -8.8 °C -10.1 °C 1028.3 hPa East 1.6 km/h 8 km/h 90% 0 mm 0 W/m2
03:14 -8.8 °C -10.1 °C 1028.3 hPa East 1.6 km/h 3.2 km/h 90% 0 mm 0 W/m2
03:20 -8.8 °C -10.2 °C 1028.3 hPa ENE 1.6 km/h 1.6 km/h 90% 0 mm 0 W/m2
03:26 -8.8 °C -10.2 °C 1028.3 hPa East 3.2 km/h 8 km/h 90% 0 mm 0 W/m2
03:32 -8.8 °C -10.2 °C 1028.3 hPa ENE 3.2 km/h 4.8 km/h 90% 0 mm 0 W/m2
03:42 -8.8 °C -10.1 °C 1028.3 hPa East 1.6 km/h 1.6 km/h 90% 0 mm 0 W/m2
03:48 -8.8 °C -10 °C 1028.3 hPa ENE 1.6 km/h 1.6 km/h 91% 0 mm 0 W/m2
03:54 -8.8 °C -10 °C 1028.3 hPa ENE 1.6 km/h 3.2 km/h 91% 0 mm 0 W/m2
04:00 -8.7 °C -9.9 °C 1028.3 hPa ENE 1.6 km/h 1.6 km/h 91% 0 mm 0 W/m2
04:06 -8.7 °C -9.9 °C 1028.3 hPa ENE 1.6 km/h 3.2 km/h 91% 0 mm 0 W/m2
04:12 -8.7 °C -9.9 °C 1028.3 hPa ENE 1.6 km/h 1.6 km/h 91% 0 mm 0 W/m2
04:18 -8.7 °C -9.9 °C 1028.3 hPa ENE 1.6 km/h 1.6 km/h 91% 0 mm 0 W/m2
04:24 -8.7 °C -9.9 °C 1028.3 hPa East 1.6 km/h 1.6 km/h 91% 0 mm 0 W/m2
04:30 -8.7 °C -9.9 °C 1028.3 hPa East 3.2 km/h 3.2 km/h 91% 0 mm 0 W/m2
04:36 -8.7 °C -10.1 °C 1028.3 hPa East 1.6 km/h 3.2 km/h 90% 0 mm 0 W/m2
04:42 -8.8 °C -10.1 °C 1028.3 hPa East 1.6 km/h 1.6 km/h 90% 0 mm 0 W/m2
04:48 -8.8 °C -10.2 °C 1028.3 hPa East 1.6 km/h 3.2 km/h 90% 0 mm 0 W/m2
04:54 -8.8 °C -10.2 °C 1028.3 hPa East 1.6 km/h 1.6 km/h 90% 0 mm 0 W/m2
05:00 -8.9 °C -10.2 °C 1028.3 hPa Calm     90% 0 mm 0 W/m2
05:06 -8.9 °C -10.3 °C 1028.3 hPa Calm     90% 0 mm 0 W/m2
05:12 -9.1 °C -10.4 °C 1028.3 hPa Calm     90% 0 mm 0 W/m2
05:18 -9.1 °C -10.4 °C 1028.3 hPa Calm   3.2 km/h 90% 0 mm 0 W/m2
05:24 -9.2 °C -10.5 °C 1028.3 hPa East 1.6 km/h 1.6 km/h 90% 0 mm 0 W/m2
05:34 -9.2 °C -10.5 °C 1028.3 hPa ENE 1.6 km/h 4.8 km/h 90% 0 mm 0 W/m2
05:40 -9.2 °C -10.5 °C 1028.3 hPa ENE 3.2 km/h 3.2 km/h 90% 0 mm 0 W/m2
05:46 -9.2 °C -10.5 °C 1028.3 hPa ENE 1.6 km/h 3.2 km/h 90% 0 mm 0 W/m2
05:52 -9.1 °C -10.4 °C 1028.3 hPa ENE 1.6 km/h 1.6 km/h 90% 0 mm 0 W/m2
05:58 -9.1 °C -10.4 °C 1028.3 hPa Calm   1.6 km/h 90% 0 mm 0 W/m2
06:04 -9.1 °C -10.4 °C 1028.3 hPa ENE 1.6 km/h 1.6 km/h 90% 0 mm 0 W/m2
06:10 -9 °C -10.3 °C 1028.7 hPa ENE 1.6 km/h 1.6 km/h 90% 0 mm 0 W/m2
06:18 -8.9 °C -10.3 °C 1028.7 hPa Calm   3.2 km/h 90% 0 mm 0 W/m2
06:24 -8.9 °C -10.2 °C 1028.7 hPa ENE 1.6 km/h 3.2 km/h 90% 0 mm 0 W/m2
06:30 -8.8 °C -10.2 °C 1028.3 hPa ENE 1.6 km/h 1.6 km/h 90% 0 mm 0 W/m2
06:36 -8.8 °C -10.1 °C 1028.7 hPa ENE 1.6 km/h 1.6 km/h 90% 0 mm 0 W/m2
06:42 -8.7 °C -10.1 °C 1029 hPa Calm     90% 0 mm 0 W/m2
06:48 -8.7 °C -9.9 °C 1029 hPa Calm   1.6 km/h 91% 0 mm 0 W/m2
06:54 -8.6 °C -9.8 °C 1029 hPa Calm   1.6 km/h 91% 0 mm 0 W/m2
07:00 -8.6 °C -9.8 °C 1029 hPa Calm   1.6 km/h 91% 0 mm 0 W/m2
07:06 -8.6 °C -9.8 °C 1029 hPa Calm   3.2 km/h 91% 0 mm 0 W/m2
07:12 -8.4 °C -9.7 °C 1029 hPa Calm     91% 0 mm 0 W/m2
07:18 -8.4 °C -9.7 °C 1029 hPa Calm   3.2 km/h 91% 0 mm 0 W/m2
07:26 -8.4 °C -9.6 °C 1029 hPa Calm     91% 0 mm 0 W/m2
07:32 -8.3 °C -9.6 °C 1029 hPa Calm     91% 0 mm 0 W/m2
07:40 -8.3 °C -9.5 °C 1029 hPa Calm     91% 0 mm 0 W/m2
07:46 -8.2 °C -9.4 °C 1029 hPa Calm     91% 0 mm 0 W/m2
07:52 -8.2 °C -9.4 °C 1029 hPa Calm     91% 0 mm 0 W/m2
07:58 -8.2 °C -9.4 °C 1029 hPa Calm   1.6 km/h 91% 0 mm 0 W/m2
08:04 -8.1 °C -9.3 °C 1029 hPa Calm     91% 0 mm 0 W/m2
08:12 -8.1 °C -9.3 °C 1029 hPa Calm   1.6 km/h 91% 0 mm 5 W/m2
08:20 -8 °C -9.2 °C 1029 hPa ENE 1.6 km/h 1.6 km/h 91% 0 mm 11 W/m2
08:26 -7.9 °C -9.2 °C 1029 hPa Calm   1.6 km/h 91% 0 mm 16 W/m2
08:32 -7.9 °C -9.1 °C 1029.3 hPa Calm   3.2 km/h 91% 0 mm 18 W/m2
08:38 -7.8 °C -9.1 °C 1029.3 hPa Calm   3.2 km/h 91% 0 mm 19 W/m2
08:44 -7.7 °C -8.9 °C 1029.3 hPa Calm   3.2 km/h 91% 0 mm 26 W/m2
08:52 -7.6 °C -8.8 °C 1029 hPa Calm   1.6 km/h 91% 0 mm 35 W/m2
08:58 -7.6 °C -8.8 °C 1029.3 hPa Calm   3.2 km/h 91% 0 mm 47 W/m2
09:06 -7.4 °C -8.7 °C 1029.3 hPa ESE 1.6 km/h 3.2 km/h 91% 0 mm 54 W/m2
09:12 -7.3 °C -8.5 °C 1029.3 hPa ESE 1.6 km/h 3.2 km/h 91% 0 mm 51 W/m2
09:18 -7.2 °C -8.4 °C 1029.3 hPa ESE 1.6 km/h 3.2 km/h 91% 0 mm 39 W/m2
09:26 -7.1 °C -8.3 °C 1029.3 hPa Calm   1.6 km/h 91% 0 mm 40 W/m2
09:32 -7 °C -8.2 °C 1029.7 hPa Calm     91% 0 mm 33 W/m2
09:38 -6.9 °C -8.2 °C 1029.7 hPa Calm   3.2 km/h 91% 0 mm 37 W/m2
09:44 -6.9 °C -8.1 °C 1029.7 hPa Calm   3.2 km/h 91% 0 mm 69 W/m2
09:50 -6.8 °C -8 °C 1029.7 hPa ESE 1.6 km/h 1.6 km/h 91% 0 mm 69 W/m2
09:56 -6.7 °C -7.9 °C 1029.3 hPa ESE 1.6 km/h 1.6 km/h 91% 0 mm 86 W/m2
10:02 -6.6 °C -7.8 °C 1029.3 hPa ESE 1.6 km/h 1.6 km/h 91% 0 mm 67 W/m2
10:08 -6.3 °C -7.6 °C 1029.7 hPa Calm   1.6 km/h 91% 0 mm 56 W/m2
10:14 -6.2 °C -7.4 °C 1029.7 hPa ESE 1.6 km/h 1.6 km/h 91% 0 mm 63 W/m2
10:20 -6.1 °C -7.2 °C 1029.7 hPa ESE 1.6 km/h 1.6 km/h 92% 0 mm 77 W/m2
10:26 -6 °C -7.1 °C 1029.7 hPa Calm   1.6 km/h 92% 0 mm 118 W/m2
10:32 -5.7 °C -6.8 °C 1029.7 hPa Calm     92% 0 mm 158 W/m2
10:38 -5.3 °C -6.4 °C 1029.7 hPa Calm     92% 0 mm 81 W/m2
10:44 -5.1 °C -6.2 °C 1029.7 hPa Calm     92% 0 mm 77 W/m2
10:52 -5 °C -6.1 °C 1029.3 hPa Calm     92% 0 mm 95 W/m2
10:58 -4.9 °C -6 °C 1029.7 hPa Calm     92% 0 mm 84 W/m2
11:06 -4.8 °C -5.9 °C 1029.3 hPa Calm     92% 0 mm 58 W/m2
11:12 -4.6 °C -5.7 °C 1029.3 hPa Calm     92% 0 mm 76 W/m2
11:24 -4.5 °C -5.6 °C 1029.3 hPa Calm   1.6 km/h 92% 0 mm 62 W/m2
11:30 -4.4 °C -5.6 °C 1029.3 hPa Calm     92% 0 mm 104 W/m2
11:36 -4.3 °C -5.4 °C 1029.3 hPa Calm     92% 0 mm 60 W/m2
11:42 -4.2 °C -5.3 °C 1029 hPa Calm   3.2 km/h 92% 0 mm 90 W/m2
11:48 -4 °C -5.1 °C 1029 hPa Calm   3.2 km/h 92% 0 mm 93 W/m2
12:02 -3.7 °C -4.8 °C 1028.7 hPa Calm     92% 0 mm 192 W/m2
12:08 -3.4 °C -4.5 °C 1028.7 hPa Calm     92% 0 mm 116 W/m2
12:14 -3.2 °C -4.1 °C 1028.7 hPa Calm   1.6 km/h 93% 0 mm 113 W/m2
12:22 -2.9 °C -3.9 °C 1028.3 hPa SSW 1.6 km/h 1.6 km/h 93% 0 mm 128 W/m2
12:28 -2.8 °C -3.8 °C 1028.3 hPa South 1.6 km/h 4.8 km/h 93% 0 mm 118 W/m2
12:34 -2.7 °C -3.7 °C 1028.3 hPa SSW 1.6 km/h 1.6 km/h 93% 0 mm 116 W/m2
12:40 -2.7 °C -3.7 °C 1028.3 hPa SSW 1.6 km/h 4.8 km/h 93% 0 mm 91 W/m2
12:52 -2.7 °C -3.8 °C 1028.3 hPa WSW 3.2 km/h 8 km/h 92% 0 mm 88 W/m2
12:58 -2.7 °C -3.8 °C 1028.3 hPa WSW 4.8 km/h 8 km/h 92% 0 mm 76 W/m2
13:04 -2.7 °C -3.8 °C 1028 hPa WSW 3.2 km/h 4.8 km/h 92% 0 mm 90 W/m2
13:12 -2.7 °C -3.8 °C 1028 hPa SW 3.2 km/h 6.4 km/h 92% 0 mm 72 W/m2
13:18 -2.7 °C -3.8 °C 1028 hPa SW 4.8 km/h 6.4 km/h 92% 0 mm 95 W/m2
13:24 -2.7 °C -3.8 °C 1028 hPa SW 3.2 km/h 3.2 km/h 92% 0 mm 121 W/m2
13:30 -2.6 °C -3.7 °C 1028 hPa SW 1.6 km/h 6.4 km/h 92% 0 mm 102 W/m2
13:36 -2.5 °C -3.6 °C 1028 hPa SW 1.6 km/h 6.4 km/h 92% 0 mm 105 W/m2
13:42 -2.4 °C -3.6 °C 1028 hPa SW 1.6 km/h 3.2 km/h 92% 0 mm 120 W/m2
13:50 -2.4 °C -3.7 °C 1027.7 hPa SW 3.2 km/h 3.2 km/h 91% 0 mm 104 W/m2
14:02 -2.4 °C -3.5 °C 1028 hPa WSW 3.2 km/h 4.8 km/h 92% 0 mm 98 W/m2
14:08 -2.3 °C -3.4 °C 1028 hPa WSW 3.2 km/h 4.8 km/h 92% 0 mm 88 W/m2
14:14 -2.4 °C -3.5 °C 1028 hPa WSW 1.6 km/h 3.2 km/h 92% 0 mm 88 W/m2
14:20 -2.4 °C -3.7 °C 1028 hPa Calm     91% 0 mm 72 W/m2
14:26 -2.4 °C -3.7 °C 1028 hPa WSW 1.6 km/h 4.8 km/h 91% 0 mm 72 W/m2
15:36 -2.7 °C -3.9 °C 1028 hPa WSW 1.6 km/h 3.2 km/h 91% 0 mm 37 W/m2
15:42 -2.7 °C -4 °C 1028.3 hPa WSW 1.6 km/h 4.8 km/h 91% 0 mm 30 W/m2
15:48 -2.8 °C -4.1 °C 1028.3 hPa WSW 3.2 km/h 6.4 km/h 91% 0 mm 32 W/m2
15:53 -2.9 °C -4 °C 1028.3 hPa WSW 1.6 km/h 6.4 km/h 92% 0 mm 25 W/m2
16:00 -2.9 °C -4.1 °C 1028.7 hPa WSW 1.6 km/h 1.6 km/h 92% 0 mm 21 W/m2
16:06 -3.1 °C -4.2 °C 1028.7 hPa WSW 1.6 km/h 3.2 km/h 92% 0 mm 18 W/m2
16:12 -3.1 °C -4.2 °C 1028.7 hPa WSW 1.6 km/h 1.6 km/h 92% 0 mm 25 W/m2
16:18 -3.1 °C -4.2 °C 1028.3 hPa Calm   1.6 km/h 92% 0 mm 18 W/m2
16:23 -3.1 °C -4.2 °C 1028.7 hPa Calm     92% 0 mm 12 W/m2
16:30 -3.2 °C -4.3 °C 1028.7 hPa Calm     92% 0 mm 9 W/m2
16:36 -3.2 °C -4.3 °C 1028.7 hPa Calm     92% 0 mm 7 W/m2
16:42 -3.2 °C -4.2 °C 1028.7 hPa Calm   3.2 km/h 93% 0 mm 5 W/m2
16:48 -3.3 °C -4.2 °C 1028.7 hPa Calm   3.2 km/h 93% 0 mm 0 W/m2
16:54 -3.3 °C -4.2 °C 1028.7 hPa Calm     93% 0 mm 0 W/m2
17:00 -3.3 °C -4.3 °C 1028.3 hPa Calm   3.2 km/h 93% 0 mm 0 W/m2
17:06 -3.3 °C -4.3 °C 1028.3 hPa WSW 1.6 km/h 3.2 km/h 93% 0 mm 0 W/m2
17:12 -3.4 °C -4.3 °C 1028.3 hPa Calm   1.6 km/h 93% 0 mm 0 W/m2
17:18 -3.4 °C -4.3 °C 1028.7 hPa Calm   1.6 km/h 93% 0 mm 0 W/m2
17:24 -3.4 °C -4.4 °C 1028.3 hPa Calm     93% 0 mm 0 W/m2
17:30 -3.4 °C -4.4 °C 1028.3 hPa Calm     93% 0 mm 0 W/m2
17:38 -3.5 °C -4.4 °C 1028.7 hPa Calm     93% 0 mm 0 W/m2
17:44 -3.6 °C -4.5 °C 1028.7 hPa Calm     93% 0 mm 0 W/m2
17:49 -3.6 °C -4.6 °C 1028.7 hPa Calm     93% 0 mm 0 W/m2
17:56 -3.6 °C -4.6 °C 1028.7 hPa Calm     93% 0 mm 0 W/m2
18:02 -3.6 °C -4.6 °C 1028.7 hPa Calm     93% 0 mm 0 W/m2
18:08 -3.7 °C -4.6 °C 1028.7 hPa Calm     93% 0 mm 0 W/m2
18:20 -3.7 °C -4.7 °C 1028.7 hPa Calm     93% 0 mm 0 W/m2
18:26 -3.7 °C -4.7 °C 1028.7 hPa Calm     93% 0 mm 0 W/m2
18:32 -3.8 °C -4.7 °C 1028.7 hPa Calm     93% 0 mm 0 W/m2
18:38 -3.8 °C -4.7 °C 1028.7 hPa Calm     93% 0 mm 0 W/m2
18:43 -3.8 °C -4.7 °C 1028.7 hPa Calm     93% 0 mm 0 W/m2
18:50 -3.8 °C -4.8 °C 1028.7 hPa Calm     93% 0 mm 0 W/m2
18:55 -3.8 °C -4.8 °C 1028.7 hPa Calm     93% 0 mm 0 W/m2
19:02 -3.8 °C -4.8 °C 1028.7 hPa Calm     93% 0 mm 0 W/m2
19:08 -3.8 °C -4.8 °C 1028.7 hPa Calm     93% 0 mm 0 W/m2
19:13 -3.9 °C -4.8 °C 1028.7 hPa Calm     93% 0 mm 0 W/m2
19:26 -3.9 °C -4.8 °C 1028.7 hPa Calm     93% 0 mm 0 W/m2
19:32 -3.9 °C -4.9 °C 1028.7 hPa Calm     93% 0 mm 0 W/m2
19:42 -3.9 °C -4.9 °C 1028.7 hPa Calm     93% 0 mm 0 W/m2
19:48 -3.9 °C -4.9 °C 1028.7 hPa Calm     93% 0 mm 0 W/m2
19:53 -4 °C -4.9 °C 1028.7 hPa Calm     93% 0 mm 0 W/m2
19:59 -4 °C -4.9 °C 1028.7 hPa Calm     93% 0 mm 0 W/m2
20:06 -4.1 °C -5 °C 1028.7 hPa Calm     93% 0 mm 0 W/m2
20:12 -4.1 °C -5 °C 1028.7 hPa Calm     93% 0 mm 0 W/m2
20:19 -4.1 °C -5 °C 1028.7 hPa Calm     93% 0 mm 0 W/m2
20:33 -4.2 °C -5.1 °C 1028.7 hPa Calm     93% 0 mm 0 W/m2
20:39 -4.2 °C -5.1 °C 1028.7 hPa Calm     93% 0 mm 0 W/m2
20:46 -4.2 °C -5.1 °C 1028.7 hPa Calm     93% 0 mm 0 W/m2
20:52 -4.2 °C -5.1 °C 1028.7 hPa Calm     93% 0 mm 0 W/m2
20:58 -4.2 °C -5.1 °C 1028.3 hPa Calm     93% 0 mm 0 W/m2
21:04 -4.2 °C -5.1 °C 1028.7 hPa Calm     93% 0 mm 0 W/m2
21:12 -4.2 °C -5.1 °C 1028.3 hPa Calm   3.2 km/h 93% 0 mm 0 W/m2
21:18 -4.2 °C -5.2 °C 1028 hPa WSW 1.6 km/h 3.2 km/h 93% 0 mm 0 W/m2
21:23 -4.3 °C -5.2 °C 1028 hPa Calm   1.6 km/h 93% 0 mm 0 W/m2
21:30 -4.3 °C -5.2 °C 1028 hPa Calm     93% 0 mm 0 W/m2
21:39 -4.3 °C -5.3 °C 1028 hPa Calm     93% 0 mm 0 W/m2
21:46 -4.3 °C -5.3 °C 1028 hPa Calm     93% 0 mm 0 W/m2
21:52 -4.4 °C -5.3 °C 1028 hPa Calm     93% 0 mm 0 W/m2
21:58 -4.4 °C -5.3 °C 1028 hPa Calm     93% 0 mm 0 W/m2
22:04 -4.4 °C -5.3 °C 1028 hPa Calm     93% 0 mm 0 W/m2
22:09 -4.4 °C -5.3 °C 1028 hPa Calm     93% 0 mm 0 W/m2
22:16 -4.4 °C -5.3 °C 1028 hPa Calm     93% 0 mm 0 W/m2
22:22 -4.4 °C -5.3 °C 1028 hPa Calm     93% 0 mm 0 W/m2
22:28 -4.4 °C -5.4 °C 1027.7 hPa Calm     93% 0 mm 0 W/m2
22:33 -4.4 °C -5.4 °C 1028 hPa Calm     93% 0 mm 0 W/m2
22:42 -4.5 °C -5.4 °C 1027.7 hPa Calm     93% 0 mm 0 W/m2
22:48 -4.6 °C -5.5 °C 1027.7 hPa Calm     93% 0 mm 0 W/m2
22:54 -4.6 °C -5.6 °C 1028 hPa Calm     93% 0 mm 0 W/m2
22:59 -4.7 °C -5.6 °C 1027.7 hPa Calm     93% 0 mm 0 W/m2
23:05 -4.7 °C -5.7 °C 1027.7 hPa Calm     93% 0 mm 0 W/m2
23:12 -4.8 °C -5.8 °C 1027.7 hPa Calm     93% 0 mm 0 W/m2
23:18 -5 °C -5.9 °C 1027.7 hPa Calm     93% 0 mm 0 W/m2
23:28 -5.2 °C -6.1 °C 1027.7 hPa Calm     93% 0 mm 0 W/m2
23:36 -5.3 °C -6.3 °C 1027.3 hPa Calm     93% 0 mm 0 W/m2
23:42 -5.5 °C -6.4 °C 1027.3 hPa Calm     93% 0 mm 0 W/m2
23:48 -5.6 °C -6.6 °C 1027.3 hPa Calm     93% 0 mm 0 W/m2
Country Meadow, Clay, NY, USA
Compliments of Weather Underground - 2 mb